createdAt,value
2023-03-23T15:58:22.372Z,20.83
2023-03-23T16:00:51.956Z,20.87
2023-03-23T16:03:25.182Z,20.88
2023-03-23T16:05:51.981Z,20.90
2023-03-23T16:08:18.494Z,20.90
2023-03-23T16:10:45.130Z,20.85
2023-03-23T16:13:11.835Z,20.78
2023-03-23T16:15:39.941Z,20.81
2023-03-23T16:18:06.915Z,20.77
2023-03-23T16:20:33.746Z,20.76
2023-03-23T16:23:01.085Z,20.77
2023-03-23T16:25:27.631Z,20.78
2023-03-23T16:27:54.522Z,20.78
2023-03-23T16:30:25.632Z,20.77
2023-03-23T16:32:55.418Z,20.83
2023-03-23T16:35:23.783Z,20.86
2023-03-23T16:38:08.309Z,20.90
2023-03-23T16:40:36.881Z,20.89
2023-03-23T16:43:08.405Z,20.91
2023-03-23T16:45:43.142Z,20.87
2023-03-23T16:48:10.944Z,20.80
2023-03-23T16:50:38.175Z,20.84
2023-03-23T16:53:06.669Z,20.88
2023-03-23T16:55:33.694Z,20.88
2023-03-23T16:58:15.358Z,20.91
2023-03-23T17:00:45.638Z,20.95
2023-03-23T17:03:13.351Z,20.94
2023-03-23T17:05:40.178Z,20.90
2023-03-23T17:08:07.298Z,20.87
2023-03-23T17:10:33.822Z,20.87
2023-03-23T17:13:00.405Z,20.91
2023-03-23T17:15:26.928Z,20.89
2023-03-23T17:17:55.037Z,20.96
2023-03-23T17:20:22.268Z,20.99
2023-03-23T17:22:48.968Z,20.96
2023-03-23T17:25:15.687Z,20.94
2023-03-23T17:27:42.757Z,20.95
2023-03-23T17:30:10.931Z,20.94
2023-03-23T17:32:38.402Z,20.92
2023-03-23T17:35:06.475Z,20.94
2023-03-23T17:37:33.385Z,20.92
2023-03-23T17:40:00.171Z,20.94
2023-03-23T17:42:27.182Z,20.95
2023-03-23T17:44:53.903Z,20.94
2023-03-23T17:47:20.563Z,20.96
2023-03-23T17:49:47.860Z,20.88
2023-03-23T17:52:14.561Z,20.92
2023-03-23T17:54:41.206Z,20.93
2023-03-23T17:57:07.784Z,20.92
2023-03-23T17:59:34.422Z,20.88
2023-03-23T18:02:01.023Z,20.89
2023-03-23T18:04:27.681Z,20.89
2023-03-23T18:06:56.375Z,20.86
2023-03-23T18:09:23.410Z,20.86
2023-03-23T18:11:49.980Z,20.85
2023-03-23T18:14:16.592Z,20.89
2023-03-23T18:16:43.254Z,20.88
2023-03-23T18:19:10.124Z,20.84
2023-03-23T18:21:36.576Z,20.87
2023-03-23T18:24:03.600Z,20.90
2023-03-23T18:26:30.352Z,20.93
2023-03-23T18:28:56.960Z,20.90
2023-03-23T18:31:23.940Z,20.89
2023-03-23T18:33:51.558Z,20.88
2023-03-23T18:36:20.798Z,20.85
2023-03-23T18:38:48.727Z,20.85
2023-03-23T18:41:16.283Z,20.87
2023-03-23T18:43:43.457Z,20.84
2023-03-23T18:46:10.250Z,20.84
2023-03-23T18:48:37.530Z,20.85
2023-03-23T18:51:04.478Z,20.84
2023-03-23T18:53:31.549Z,20.83
2023-03-23T18:56:07.438Z,20.80
2023-03-23T18:58:34.160Z,20.85
2023-03-23T19:01:07.109Z,20.77
2023-03-23T19:03:35.199Z,20.78
2023-03-23T19:06:02.314Z,20.75
2023-03-23T19:08:29.567Z,20.77
2023-03-23T19:11:02.425Z,20.79
2023-03-23T19:13:31.230Z,20.78
2023-03-23T19:15:58.005Z,20.76
2023-03-23T19:18:24.460Z,20.80
2023-03-23T19:21:13.464Z,20.84
2023-03-23T19:23:41.738Z,20.80
2023-03-23T19:26:08.412Z,20.83
2023-03-23T19:31:05.030Z,20.85
2023-03-23T19:33:31.519Z,20.84
2023-03-23T19:36:09.289Z,20.85
2023-03-23T19:38:38.249Z,20.85
2023-03-23T19:41:05.834Z,20.84
2023-03-23T19:43:32.829Z,20.85
2023-03-23T19:46:00.720Z,20.85
2023-03-23T19:48:27.319Z,20.83
2023-03-23T19:50:55.784Z,20.84
2023-03-23T19:53:23.112Z,20.82
2023-03-23T19:55:50.599Z,20.83
2023-03-23T19:58:17.373Z,20.76
2023-03-23T20:00:45.289Z,20.75
2023-03-23T20:03:12.561Z,20.70
2023-03-23T20:05:40.750Z,20.75
2023-03-23T20:08:09.808Z,20.75
2023-03-23T20:10:36.942Z,20.81
2023-03-23T20:13:06.362Z,20.82
2023-03-23T20:15:33.357Z,20.73
2023-03-23T20:18:00.589Z,20.72
2023-03-23T20:20:28.301Z,20.71
2023-03-23T20:22:57.381Z,20.70
2023-03-23T20:25:24.937Z,20.65
2023-03-23T20:27:51.652Z,20.70
2023-03-23T20:30:18.790Z,20.75
2023-03-23T20:32:46.448Z,20.73
2023-03-23T20:35:14.745Z,20.73
2023-03-23T20:37:41.596Z,20.69
2023-03-23T20:40:14.666Z,20.65
2023-03-23T20:42:44.095Z,20.69
2023-03-23T20:45:13.037Z,20.72
2023-03-23T20:47:41.135Z,20.72
2023-03-23T20:50:10.085Z,20.75
2023-03-23T20:52:36.979Z,20.72
2023-03-23T20:55:04.548Z,20.69
2023-03-23T20:57:31.130Z,20.69
2023-03-23T20:59:58.026Z,20.70
2023-03-23T21:02:29.762Z,20.69
2023-03-23T21:04:58.106Z,20.69
2023-03-23T21:07:27.432Z,20.68
2023-03-23T21:09:53.932Z,20.68
2023-03-23T21:12:20.406Z,20.75
2023-03-23T21:14:47.788Z,20.70
2023-03-23T21:17:14.499Z,20.70
2023-03-23T21:19:41.306Z,20.67
2023-03-23T21:22:09.654Z,20.66
2023-03-23T21:24:38.522Z,20.73
2023-03-23T21:27:05.390Z,20.76
2023-03-23T21:29:32.736Z,20.72
2023-03-23T21:34:28.693Z,20.63
2023-03-23T21:36:55.427Z,20.66
2023-03-23T21:39:22.472Z,20.65
2023-03-23T21:41:49.748Z,20.65
2023-03-23T21:44:18.104Z,20.67
2023-03-23T21:46:45.345Z,20.68
2023-03-23T21:49:14.112Z,20.72
2023-03-23T21:51:41.665Z,20.68
2023-03-23T21:54:09.994Z,20.64
2023-03-23T21:56:36.910Z,20.65
2023-03-23T21:59:04.735Z,20.68
2023-03-23T22:01:31.488Z,20.66
2023-03-23T22:03:58.215Z,20.69
2023-03-23T22:06:30.962Z,20.69
2023-03-23T22:08:57.505Z,20.67
2023-03-23T22:11:26.692Z,20.70
2023-03-23T22:13:55.115Z,20.72
2023-03-23T22:16:22.501Z,20.67
2023-03-23T22:18:51.311Z,20.64
2023-03-23T22:21:19.871Z,20.65
2023-03-23T22:23:46.717Z,20.65
2023-03-23T22:26:15.389Z,20.65
2023-03-23T22:28:43.364Z,20.65
2023-03-23T22:31:19.657Z,20.65
2023-03-23T22:33:47.674Z,20.66
2023-03-23T22:36:15.438Z,20.69
2023-03-23T22:38:44.371Z,20.67
2023-03-23T22:41:17.658Z,20.68
2023-03-23T22:43:44.916Z,20.67
2023-03-23T22:46:11.481Z,20.68
2023-03-23T22:48:38.213Z,20.68
2023-03-23T22:51:04.876Z,20.65
2023-03-23T22:53:31.690Z,20.66
2023-03-23T22:55:58.618Z,20.68
2023-03-23T22:58:26.842Z,20.67
2023-03-23T23:01:02.762Z,20.68
2023-03-23T23:03:30.422Z,20.69
2023-03-23T23:05:58.482Z,20.67
2023-03-23T23:08:27.397Z,20.66
2023-03-23T23:10:56.105Z,20.65
2023-03-23T23:13:23.880Z,20.66
2023-03-23T23:15:53.118Z,20.66
2023-03-23T23:18:20.749Z,20.66
2023-03-23T23:20:52.376Z,20.66
2023-03-23T23:23:19.136Z,20.64
2023-03-23T23:25:45.912Z,20.64
2023-03-23T23:28:13.065Z,20.66
2023-03-23T23:30:39.811Z,20.65
2023-03-23T23:33:09.320Z,20.65
2023-03-23T23:35:37.894Z,20.66
2023-03-23T23:38:06.896Z,20.66
2023-03-23T23:40:35.293Z,20.66
2023-03-23T23:43:03.488Z,20.66
2023-03-23T23:45:30.302Z,20.69
2023-03-23T23:47:57.792Z,20.68
2023-03-23T23:50:24.819Z,20.66
2023-03-23T23:52:52.310Z,20.66
2023-03-23T23:55:20.118Z,20.66
2023-03-23T23:57:48.226Z,20.65
